createdAt,value
2022-11-29T00:01:46.786Z,1.83
2022-11-29T00:04:17.670Z,1.80
2022-11-29T00:06:46.502Z,1.80
2022-11-29T00:09:15.436Z,1.81
2022-11-29T00:12:02.940Z,1.79
2022-11-29T00:14:31.799Z,1.77
2022-11-29T00:17:04.662Z,1.72
2022-11-29T00:19:35.832Z,1.68
2022-11-29T00:22:05.080Z,1.67
2022-11-29T00:24:34.722Z,1.68
2022-11-29T00:27:03.630Z,1.69
2022-11-29T00:29:32.740Z,1.68
2022-11-29T00:32:01.689Z,1.63
2022-11-29T00:34:30.415Z,1.64
2022-11-29T00:40:01.423Z,1.67
2022-11-29T00:42:30.379Z,1.63
2022-11-29T00:44:59.140Z,1.61
2022-11-29T00:47:28.117Z,1.58
2022-11-29T00:49:56.772Z,1.58
2022-11-29T00:52:25.436Z,1.58
2022-11-29T00:54:54.463Z,1.58
2022-11-29T00:57:23.200Z,1.57
2022-11-29T00:59:52.215Z,1.55
2022-11-29T01:02:21.545Z,1.55
2022-11-29T01:04:50.322Z,1.57
2022-11-29T01:07:19.184Z,1.59
2022-11-29T01:09:47.848Z,1.60
2022-11-29T01:12:21.457Z,1.61
2022-11-29T01:14:51.825Z,1.59
2022-11-29T01:17:20.583Z,1.61
2022-11-29T01:23:23.856Z,1.69
2022-11-29T01:26:08.370Z,1.68
2022-11-29T01:28:38.263Z,1.68
2022-11-29T01:31:13.650Z,1.68
2022-11-29T01:33:42.716Z,1.66
2022-11-29T01:36:13.597Z,1.65
2022-11-29T01:38:42.840Z,1.65
2022-11-29T01:41:15.006Z,1.61
2022-11-29T01:44:13.959Z,1.56
2022-11-29T01:46:46.361Z,1.55
2022-11-29T01:49:28.535Z,1.55
2022-11-29T01:52:23.648Z,1.55
2022-11-29T01:54:57.037Z,1.51
2022-11-29T01:57:26.388Z,1.48
2022-11-29T02:00:01.368Z,1.46
2022-11-29T02:02:37.596Z,1.47
2022-11-29T02:05:07.334Z,1.47
2022-11-29T02:07:37.112Z,1.43
2022-11-29T02:10:07.829Z,1.41
2022-11-29T02:12:55.273Z,1.40
2022-11-29T02:16:07.822Z,1.39
2022-11-29T02:19:20.007Z,1.38
2022-11-29T02:22:14.667Z,1.36
2022-11-29T02:25:23.539Z,1.32
2022-11-29T02:28:41.306Z,1.29
2022-11-29T02:31:57.948Z,1.26
2022-11-29T02:34:48.002Z,1.23
2022-11-29T02:37:28.790Z,1.19
2022-11-29T02:40:41.388Z,1.15
2022-11-29T02:43:53.881Z,1.12
2022-11-29T02:46:47.526Z,1.13
2022-11-29T02:49:28.852Z,1.14
2022-11-29T02:52:03.179Z,1.11
2022-11-29T02:54:58.885Z,1.08
2022-11-29T02:57:56.842Z,1.05
2022-11-29T03:00:26.148Z,1.03
2022-11-29T03:03:17.879Z,0.99
2022-11-29T03:06:12.709Z,0.95
2022-11-29T03:08:56.345Z,0.93
2022-11-29T03:11:58.059Z,0.90
2022-11-29T03:14:47.627Z,0.87
2022-11-29T03:17:40.849Z,0.85
2022-11-29T03:20:33.566Z,0.83
2022-11-29T03:23:19.851Z,0.81
2022-11-29T03:26:25.897Z,0.80
2022-11-29T03:29:07.523Z,0.77
2022-11-29T03:31:46.671Z,0.79
2022-11-29T03:34:43.834Z,0.80
2022-11-29T03:37:28.795Z,0.82
2022-11-29T03:40:08.974Z,0.82
2022-11-29T03:43:03.671Z,0.81
2022-11-29T03:46:01.930Z,0.82
2022-11-29T03:48:37.794Z,0.85
2022-11-29T03:51:40.198Z,0.87
2022-11-29T03:54:13.632Z,0.89
2022-11-29T03:56:43.098Z,0.90
2022-11-29T03:59:29.882Z,0.92
2022-11-29T04:02:40.104Z,0.94
2022-11-29T04:05:39.310Z,0.95
2022-11-29T04:09:19.019Z,0.93
2022-11-29T04:12:22.494Z,0.90
2022-11-29T04:15:48.778Z,0.88
2022-11-29T04:18:59.364Z,0.86
2022-11-29T04:22:02.607Z,0.86
2022-11-29T04:25:09.561Z,0.86
2022-11-29T04:27:51.335Z,0.85
2022-11-29T04:30:25.718Z,0.86
2022-11-29T04:33:25.293Z,0.87
2022-11-29T04:36:12.079Z,0.85
2022-11-29T04:39:21.858Z,0.83
2022-11-29T04:42:18.668Z,0.83
2022-11-29T04:44:54.264Z,0.83
2022-11-29T04:47:41.200Z,0.81
2022-11-29T04:50:47.688Z,0.78
2022-11-29T04:53:56.830Z,0.76
2022-11-29T04:56:52.612Z,0.72
2022-11-29T04:59:26.855Z,0.69
2022-11-29T05:02:08.144Z,0.67
2022-11-29T05:04:59.560Z,0.66
2022-11-29T05:08:03.176Z,0.67
2022-11-29T05:11:22.079Z,0.65
2022-11-29T05:14:35.879Z,0.59
2022-11-29T05:17:31.927Z,0.55
2022-11-29T05:34:45.271Z,0.82
2022-11-29T05:37:39.368Z,0.91
2022-11-29T05:40:43.208Z,0.82
2022-11-29T05:44:05.405Z,0.71
2022-11-29T05:47:06.427Z,0.62
2022-11-29T05:50:19.419Z,0.58
2022-11-29T05:53:06.768Z,0.56
2022-11-29T05:56:03.107Z,0.56
2022-11-29T05:59:03.024Z,0.55
2022-11-29T06:01:56.671Z,0.48
2022-11-29T06:04:53.930Z,0.45
2022-11-29T06:08:06.970Z,0.45
2022-11-29T06:10:41.689Z,0.47
2022-11-29T06:13:45.726Z,0.48
2022-11-29T06:17:09.580Z,0.52
2022-11-29T06:19:53.775Z,0.61
2022-11-29T06:22:46.239Z,0.68
2022-11-29T06:25:27.671Z,0.69
2022-11-29T06:28:31.056Z,0.68
2022-11-29T06:31:27.802Z,0.69
2022-11-29T06:34:11.397Z,0.70
2022-11-29T06:36:58.013Z,0.71
2022-11-29T06:39:28.431Z,0.71
2022-11-29T06:42:04.355Z,0.72
2022-11-29T13:52:47.408Z,3.59
2022-11-29T13:56:15.472Z,3.53
2022-11-29T13:58:56.503Z,3.55
2022-11-29T14:01:30.833Z,3.60
2022-11-29T14:04:32.905Z,3.57
2022-11-29T14:07:24.967Z,3.62
2022-11-29T14:10:32.494Z,3.65
2022-11-29T14:13:02.089Z,3.61
2022-11-29T19:55:59.189Z,3.40
2022-11-29T19:58:27.011Z,3.38
2022-11-29T20:00:54.692Z,3.39
2022-11-29T20:03:22.669Z,3.38
2022-11-29T20:05:55.035Z,3.37
2022-11-29T20:08:22.974Z,3.37
2022-11-29T20:10:50.695Z,3.37
2022-11-29T20:13:18.260Z,3.37
2022-11-29T20:15:46.560Z,3.36
2022-11-29T20:18:14.373Z,3.36
2022-11-29T20:20:42.418Z,3.36
2022-11-29T20:23:10.281Z,3.36
2022-11-29T20:25:38.125Z,3.35
2022-11-29T20:28:06.483Z,3.35
2022-11-29T20:30:34.409Z,3.34
2022-11-29T20:33:02.295Z,3.33
2022-11-29T20:35:30.133Z,3.32
2022-11-29T20:38:36.838Z,3.31
2022-11-29T20:41:19.664Z,3.27
2022-11-29T20:43:55.589Z,3.23
2022-11-29T20:46:25.320Z,3.22
2022-11-29T20:48:53.541Z,3.21
2022-11-29T20:51:31.147Z,3.20
2022-11-29T20:53:58.657Z,3.19
2022-11-29T20:56:28.237Z,3.18
2022-11-29T20:58:56.384Z,3.17
2022-11-29T21:01:24.816Z,3.17
2022-11-29T21:03:52.196Z,3.18
2022-11-29T21:06:19.744Z,3.18
2022-11-29T21:08:47.351Z,3.19
2022-11-29T21:11:15.733Z,3.19
2022-11-29T21:13:43.758Z,3.21
2022-11-29T21:16:16.848Z,3.19
2022-11-29T21:18:44.954Z,3.13
2022-11-29T21:21:20.912Z,3.15
2022-11-29T21:24:20.921Z,3.15
2022-11-29T21:26:52.259Z,3.16
2022-11-29T21:29:21.369Z,3.15
2022-11-29T21:31:52.847Z,3.13
2022-11-29T21:34:20.735Z,3.13
2022-11-29T21:37:00.649Z,3.11
2022-11-29T21:39:39.388Z,3.10
2022-11-29T21:42:06.849Z,3.09
2022-11-29T21:44:34.427Z,3.08
2022-11-29T21:47:01.962Z,3.07
2022-11-29T21:49:29.494Z,3.06
2022-11-29T21:51:59.744Z,3.06
2022-11-29T21:54:28.999Z,3.06
2022-11-29T21:56:56.398Z,3.06
2022-11-29T21:59:27.666Z,3.06
2022-11-29T22:01:55.467Z,3.07
2022-11-29T22:04:23.013Z,3.06
2022-11-29T22:06:50.365Z,3.07
2022-11-29T22:09:18.005Z,3.07
2022-11-29T22:11:45.392Z,3.07
2022-11-29T22:14:18.532Z,3.04
2022-11-29T22:16:50.701Z,3.02
2022-11-29T22:19:27.390Z,3.02
2022-11-29T22:21:58.529Z,3.02
2022-11-29T22:24:27.318Z,3.00
2022-11-29T22:26:55.288Z,2.96
2022-11-29T22:29:23.920Z,2.93
2022-11-29T22:31:54.715Z,2.89
2022-11-29T22:34:24.616Z,2.87
2022-11-29T22:36:52.880Z,2.87
2022-11-29T22:39:20.216Z,2.88
2022-11-29T22:41:53.671Z,2.89
2022-11-29T22:44:23.557Z,2.90
2022-11-29T22:46:51.508Z,2.92
2022-11-29T22:49:19.263Z,2.94
2022-11-29T22:51:46.931Z,2.92
2022-11-29T22:54:15.890Z,2.93
2022-11-29T22:56:44.558Z,2.97
2022-11-29T22:59:11.794Z,2.98
2022-11-29T23:01:40.394Z,3.01
2022-11-29T23:04:10.781Z,3.05
2022-11-29T23:06:43.187Z,3.06
2022-11-29T23:09:21.732Z,3.05
2022-11-29T23:11:51.965Z,3.03
2022-11-29T23:14:20.252Z,3.01
2022-11-29T23:16:48.001Z,3.00
2022-11-29T23:19:16.912Z,3.01
2022-11-29T23:21:45.317Z,3.01
2022-11-29T23:24:14.309Z,2.98
2022-11-29T23:26:45.397Z,2.96
2022-11-29T23:29:16.946Z,2.92
2022-11-29T23:31:46.448Z,2.87
2022-11-29T23:34:14.151Z,2.84
2022-11-29T23:36:41.677Z,2.82
2022-11-29T23:39:10.035Z,2.78
2022-11-29T23:41:37.399Z,2.76
2022-11-29T23:44:05.618Z,2.74
2022-11-29T23:46:34.481Z,2.70
2022-11-29T23:49:02.086Z,2.68
2022-11-29T23:51:29.782Z,2.66
2022-11-29T23:53:57.425Z,2.62
2022-11-29T23:56:25.050Z,2.60
2022-11-29T23:58:52.923Z,2.61
